createdAt,value
2018-08-22T00:01:57.497Z,88.72
2018-08-22T00:04:59.751Z,88.30
2018-08-22T00:08:02.009Z,89.49
2018-08-22T00:11:04.277Z,88.98
2018-08-22T00:14:06.535Z,89.65
2018-08-22T00:17:13.069Z,90.90
2018-08-22T00:20:15.388Z,91.25
2018-08-22T00:23:17.596Z,91.77
2018-08-22T00:26:19.797Z,92.04
2018-08-22T00:29:22.060Z,91.60
2018-08-22T00:32:24.213Z,91.29
2018-08-22T00:35:26.397Z,92.64
2018-08-22T00:38:28.556Z,92.78
2018-08-22T00:41:32.001Z,93.27
2018-08-22T00:44:34.241Z,93.03
2018-08-22T00:47:36.508Z,93.33
2018-08-22T00:50:38.677Z,93.13
2018-08-22T00:53:40.827Z,93.67
2018-08-22T00:56:42.956Z,93.87
2018-08-22T00:59:45.160Z,93.97
2018-08-22T01:02:47.321Z,93.74
2018-08-22T01:05:49.611Z,93.86
2018-08-22T01:08:51.796Z,93.73
2018-08-22T01:11:54.042Z,93.99
2018-08-22T01:14:56.254Z,93.58
2018-08-22T01:17:58.428Z,93.84
2018-08-22T01:21:00.688Z,94.26
2018-08-22T01:24:02.866Z,93.58
2018-08-22T01:27:05.048Z,94.57
2018-08-22T01:30:07.395Z,94.68
2018-08-22T01:33:09.597Z,95.42
2018-08-22T01:36:11.855Z,95.29
2018-08-22T01:39:14.140Z,95.50
2018-08-22T01:42:16.861Z,96.10
2018-08-22T01:45:19.084Z,96.14
2018-08-22T01:48:21.620Z,97.03
2018-08-22T01:51:23.860Z,97.01
2018-08-22T01:54:26.217Z,96.76
2018-08-22T01:57:28.497Z,97.04
2018-08-22T02:00:30.712Z,97.56
2018-08-22T02:03:32.927Z,97.62
2018-08-22T02:06:35.193Z,97.46
2018-08-22T02:09:37.429Z,97.12
2018-08-22T02:12:39.597Z,97.51
2018-08-22T02:15:41.834Z,96.65
2018-08-22T02:18:44.195Z,97.04
2018-08-22T02:21:47.445Z,97.45
2018-08-22T02:24:49.635Z,97.10
2018-08-22T02:27:51.934Z,96.88
2018-08-22T02:30:54.107Z,97.68
2018-08-22T02:33:56.476Z,98.07
2018-08-22T02:36:58.662Z,98.23
2018-08-22T02:40:00.785Z,98.17
2018-08-22T02:43:03.041Z,99.11
2018-08-22T02:46:05.517Z,99.05
2018-08-22T02:49:12.305Z,99.36
2018-08-22T02:52:15.512Z,98.89
2018-08-22T02:55:17.652Z,99.32
2018-08-22T02:58:19.832Z,98.81
2018-08-22T03:01:22.049Z,99.15
2018-08-22T03:04:24.239Z,99.51
2018-08-22T03:07:26.611Z,99.49
2018-08-22T03:10:28.879Z,98.89
2018-08-22T03:13:31.116Z,99.77
2018-08-22T03:16:33.330Z,99.94
2018-08-22T03:19:35.622Z,100.00
2018-08-22T03:22:37.848Z,100.00
2018-08-22T03:25:40.182Z,99.75
2018-08-22T03:28:42.388Z,98.64
2018-08-22T03:31:44.621Z,97.76
2018-08-22T03:34:46.806Z,97.38
2018-08-22T03:37:49.046Z,97.36
2018-08-22T03:40:51.253Z,96.87
2018-08-22T03:43:53.620Z,96.81
2018-08-22T03:46:55.936Z,95.65
2018-08-22T03:49:59.370Z,97.18
2018-08-22T03:53:01.653Z,97.49
2018-08-22T03:56:03.837Z,99.03
2018-08-22T03:59:06.183Z,99.75
2018-08-22T04:02:08.454Z,100.00
2018-08-22T04:05:10.645Z,100.00
2018-08-22T04:08:12.954Z,100.00
2018-08-22T04:11:15.204Z,100.00
2018-08-22T04:14:17.524Z,100.00
2018-08-22T04:17:19.909Z,100.00
2018-08-22T04:20:22.142Z,100.00
2018-08-22T04:23:24.529Z,100.00
2018-08-22T04:26:26.858Z,100.00
2018-08-22T04:29:29.142Z,100.00
2018-08-22T04:32:31.539Z,100.00
2018-08-22T04:35:33.793Z,100.00
2018-08-22T04:38:36.052Z,100.00
2018-08-22T04:41:38.397Z,100.00
2018-08-22T04:44:40.823Z,99.22
2018-08-22T04:47:43.117Z,98.86
2018-08-22T04:50:45.398Z,98.15
2018-08-22T04:53:47.668Z,98.32
2018-08-22T04:56:49.857Z,97.54
2018-08-22T04:59:52.085Z,97.88
2018-08-22T05:02:54.260Z,97.85
2018-08-22T05:05:56.423Z,96.75
2018-08-22T05:08:58.691Z,96.81
2018-08-22T05:12:00.972Z,95.31
2018-08-22T05:15:03.291Z,93.38
2018-08-22T05:18:05.733Z,89.66
2018-08-22T05:21:08.050Z,87.45
2018-08-22T05:24:10.236Z,85.76
2018-08-22T05:27:12.491Z,80.78
2018-08-22T05:30:14.721Z,74.84
2018-08-22T05:33:16.910Z,78.96
2018-08-22T05:36:19.105Z,82.53
2018-08-22T05:39:21.349Z,79.55
2018-08-22T05:42:23.532Z,76.38
2018-08-22T05:45:25.766Z,72.49
2018-08-22T05:48:28.055Z,70.47
2018-08-22T05:51:30.312Z,67.74
2018-08-22T05:54:32.541Z,68.26
2018-08-22T05:57:34.790Z,67.54
2018-08-22T06:00:36.995Z,65.78
2018-08-22T06:03:39.192Z,65.57
2018-08-22T06:06:41.421Z,61.72
2018-08-22T06:09:43.658Z,59.24
2018-08-22T06:12:45.759Z,57.38
2018-08-22T06:15:48.035Z,55.48
2018-08-22T06:18:50.198Z,55.40
2018-08-22T06:21:52.402Z,55.17
2018-08-22T06:24:54.617Z,54.72
2018-08-22T06:27:56.873Z,54.22
2018-08-22T06:30:59.156Z,55.26
2018-08-22T06:34:01.352Z,55.11
2018-08-22T06:37:03.708Z,53.27
2018-08-22T06:40:06.206Z,52.86
2018-08-22T06:43:08.383Z,52.36
2018-08-22T06:46:10.575Z,52.94
2018-08-22T06:49:12.840Z,53.07
2018-08-22T06:52:15.122Z,52.82
2018-08-22T06:55:17.412Z,54.47
2018-08-22T06:58:19.630Z,56.49
2018-08-22T07:01:21.928Z,52.07
2018-08-22T07:04:24.116Z,51.69
2018-08-22T07:07:26.352Z,50.17
2018-08-22T07:10:28.591Z,51.22
2018-08-22T07:13:30.797Z,47.31
2018-08-22T07:16:33.018Z,49.15
2018-08-22T07:19:35.380Z,49.42
2018-08-22T07:22:37.529Z,49.84
2018-08-22T07:25:39.688Z,48.55
2018-08-22T07:28:41.849Z,48.78
2018-08-22T07:31:44.120Z,50.34
2018-08-22T07:34:46.275Z,51.74
2018-08-22T07:37:48.574Z,52.61
2018-08-22T07:40:50.865Z,52.99
2018-08-22T07:43:53.233Z,54.44
2018-08-22T07:46:55.418Z,56.39
2018-08-22T07:51:01.021Z,56.48
2018-08-22T07:54:03.257Z,57.08
2018-08-22T07:57:05.552Z,58.13
2018-08-22T08:00:07.845Z,57.33
2018-08-22T08:03:09.993Z,57.03
2018-08-22T08:06:12.275Z,57.53
2018-08-22T08:09:15.678Z,60.52
2018-08-22T08:12:19.522Z,59.40
2018-08-22T08:15:21.722Z,59.45
2018-08-22T08:18:23.942Z,60.30
2018-08-22T08:21:26.266Z,59.87
2018-08-22T08:24:28.518Z,61.39
2018-08-22T08:27:30.847Z,59.98
2018-08-22T08:30:33.134Z,59.37
2018-08-22T08:33:35.367Z,60.17
2018-08-22T08:36:37.544Z,59.63
2018-08-22T08:39:39.871Z,59.15
2018-08-22T08:42:42.125Z,59.73
2018-08-22T08:45:44.300Z,59.87
2018-08-22T08:48:47.410Z,59.15
2018-08-22T08:51:55.784Z,57.06
2018-08-22T08:54:58.301Z,56.30
2018-08-22T08:58:00.575Z,55.95
2018-08-22T09:01:02.819Z,57.44
2018-08-22T09:04:05.091Z,58.01
2018-08-22T09:07:07.264Z,56.88
2018-08-22T09:10:09.474Z,55.75
2018-08-22T09:13:13.202Z,56.62
2018-08-22T09:16:15.869Z,55.13
2018-08-22T09:19:18.099Z,56.29
2018-08-22T09:22:20.399Z,54.89
2018-08-22T09:25:22.616Z,53.39
2018-08-22T09:28:25.843Z,53.57
2018-08-22T09:31:29.027Z,53.59
2018-08-22T09:34:31.289Z,54.06
2018-08-22T09:37:33.536Z,54.90
2018-08-22T09:40:35.747Z,55.06
2018-08-22T09:43:38.029Z,53.43
2018-08-22T09:46:40.496Z,52.90
2018-08-22T09:49:42.685Z,52.96
2018-08-22T09:52:44.993Z,52.63
2018-08-22T09:55:47.256Z,52.01
2018-08-22T09:58:49.491Z,50.88
2018-08-22T10:01:51.823Z,51.00
2018-08-22T10:04:54.355Z,51.37
2018-08-22T10:07:56.911Z,51.16
2018-08-22T10:10:59.177Z,50.89
2018-08-22T10:14:01.465Z,50.57
2018-08-22T10:17:03.868Z,50.25
2018-08-22T10:20:06.156Z,51.07
2018-08-22T10:23:08.360Z,51.11
2018-08-22T10:26:10.707Z,51.06
2018-08-22T10:29:12.928Z,51.60
2018-08-22T10:32:15.168Z,50.32
2018-08-22T10:35:17.481Z,50.23
2018-08-22T10:38:19.706Z,48.64
2018-08-22T10:41:22.030Z,48.09
2018-08-22T10:44:24.261Z,46.88
2018-08-22T10:47:26.467Z,48.31
2018-08-22T10:50:28.895Z,47.50
2018-08-22T10:53:31.198Z,48.51
2018-08-22T10:56:33.501Z,47.67
2018-08-22T10:59:35.756Z,46.00
2018-08-22T11:02:38.117Z,44.03
2018-08-22T11:05:40.385Z,45.36
2018-08-22T11:08:42.679Z,45.52
2018-08-22T11:11:45.037Z,45.78
2018-08-22T11:14:47.538Z,45.73
2018-08-22T11:17:49.867Z,45.60
2018-08-22T11:20:52.295Z,45.81
2018-08-22T11:24:05.982Z,44.09
2018-08-22T11:27:19.660Z,45.00
2018-08-22T11:30:34.450Z,42.82
2018-08-22T11:33:48.338Z,41.81
2018-08-22T11:36:57.372Z,40.43
2018-08-22T11:39:59.540Z,41.04
2018-08-22T11:43:01.884Z,40.42
2018-08-22T11:46:04.117Z,40.07
2018-08-22T11:49:06.349Z,41.36
2018-08-22T11:52:08.532Z,42.20
2018-08-22T11:55:10.787Z,41.27
2018-08-22T11:58:13.136Z,39.37
2018-08-22T12:01:15.395Z,40.00
2018-08-22T12:04:18.006Z,39.62
2018-08-22T12:07:20.247Z,40.81
2018-08-22T12:10:27.080Z,41.29
2018-08-22T12:13:29.370Z,40.88
2018-08-22T12:16:31.647Z,41.59
2018-08-22T12:19:33.932Z,43.65
2018-08-22T12:22:36.172Z,43.34
2018-08-22T12:25:38.371Z,41.84
2018-08-22T12:28:40.677Z,42.28
2018-08-22T12:31:42.990Z,42.32
2018-08-22T12:34:45.299Z,42.25
2018-08-22T12:37:47.663Z,41.41
2018-08-22T12:40:49.891Z,42.15
2018-08-22T12:43:52.193Z,39.87
2018-08-22T12:46:54.424Z,40.16
2018-08-22T12:49:56.653Z,40.08
2018-08-22T12:52:58.892Z,40.73
2018-08-22T12:56:01.236Z,40.83
2018-08-22T12:59:04.465Z,39.87
2018-08-22T13:02:06.891Z,39.40
2018-08-22T13:05:09.261Z,40.95
2018-08-22T13:08:11.543Z,40.15
2018-08-22T13:11:13.839Z,40.41
2018-08-22T13:14:16.047Z,39.32
2018-08-22T13:17:18.277Z,37.25
2018-08-22T13:20:20.667Z,36.68
2018-08-22T13:23:22.954Z,37.49
2018-08-22T13:26:25.152Z,37.86
2018-08-22T13:29:27.326Z,38.81
2018-08-22T13:32:29.924Z,38.44
2018-08-22T13:35:32.182Z,40.20
2018-08-22T13:38:34.459Z,39.15
2018-08-22T13:41:36.664Z,39.74
2018-08-22T13:44:38.972Z,38.97
2018-08-22T13:47:41.209Z,38.69
2018-08-22T13:50:43.512Z,38.13
2018-08-22T13:53:45.789Z,35.72
2018-08-22T13:56:48.006Z,36.82
2018-08-22T13:59:50.251Z,35.58
2018-08-22T14:02:52.520Z,34.82
2018-08-22T14:05:54.755Z,36.96
2018-08-22T14:08:57.120Z,39.47
2018-08-22T14:11:59.497Z,39.77
2018-08-22T14:15:01.893Z,40.36
2018-08-22T14:18:04.231Z,40.24
2018-08-22T14:21:06.632Z,38.74
2018-08-22T14:24:08.950Z,38.38
2018-08-22T14:27:11.107Z,36.54
2018-08-22T14:30:13.286Z,36.80
2018-08-22T14:33:15.464Z,36.91
2018-08-22T14:36:17.722Z,35.65
2018-08-22T14:39:20.099Z,34.42
2018-08-22T14:42:22.347Z,34.91
2018-08-22T14:45:24.735Z,35.43
2018-08-22T14:48:26.990Z,35.33
2018-08-22T14:51:29.466Z,37.93
2018-08-22T14:54:31.718Z,39.08
2018-08-22T14:57:34.170Z,39.33
2018-08-22T15:00:36.439Z,39.40
2018-08-22T15:03:38.911Z,40.30
2018-08-22T15:06:41.177Z,40.27
2018-08-22T15:09:43.393Z,40.23
2018-08-22T15:12:46.202Z,38.56
2018-08-22T15:15:49.909Z,37.38
2018-08-22T15:18:52.489Z,37.11
2018-08-22T15:21:54.828Z,37.59
2018-08-22T15:24:57.292Z,37.68
2018-08-22T15:27:59.660Z,37.58
2018-08-22T15:31:02.006Z,37.83
2018-08-22T15:34:04.421Z,37.79
2018-08-22T15:37:08.940Z,36.98
2018-08-22T15:40:11.322Z,37.64
2018-08-22T15:43:13.738Z,37.71
2018-08-22T15:46:16.070Z,38.54
2018-08-22T15:49:18.372Z,38.12
2018-08-22T15:52:21.909Z,37.83
2018-08-22T15:55:24.219Z,39.77
2018-08-22T15:58:26.456Z,40.22
2018-08-22T16:01:28.729Z,41.53
2018-08-22T16:04:43.439Z,40.75
2018-08-22T16:07:45.967Z,40.33
2018-08-22T16:10:48.450Z,38.23
2018-08-22T16:13:50.686Z,37.22
2018-08-22T16:16:52.980Z,37.15
2018-08-22T16:19:55.297Z,36.49
2018-08-22T16:22:57.567Z,37.10
2018-08-22T16:26:00.939Z,36.86
2018-08-22T16:29:03.199Z,36.81
2018-08-22T16:32:05.455Z,39.10
2018-08-22T16:35:08.296Z,41.16
2018-08-22T16:38:12.079Z,40.98
2018-08-22T16:41:15.326Z,40.45
2018-08-22T16:44:17.622Z,38.57
2018-08-22T16:47:24.866Z,38.48
2018-08-22T16:50:27.453Z,38.24
2018-08-22T16:53:29.713Z,36.39
2018-08-22T16:56:33.130Z,37.68
2018-08-22T16:59:35.409Z,37.04
2018-08-22T17:02:37.619Z,36.41
2018-08-22T17:05:39.892Z,37.04
2018-08-22T17:08:42.117Z,38.45
2018-08-22T17:11:44.402Z,38.00
2018-08-22T17:14:46.982Z,37.40
2018-08-22T17:17:49.252Z,37.81
2018-08-22T17:20:51.598Z,39.39
2018-08-22T17:23:53.761Z,39.20
2018-08-22T17:26:55.994Z,38.86
2018-08-22T17:29:58.215Z,39.04
2018-08-22T17:33:00.498Z,38.41
2018-08-22T17:36:02.844Z,39.09
2018-08-22T17:39:06.629Z,39.49
2018-08-22T17:42:08.903Z,39.58
2018-08-22T17:45:32.265Z,40.50
2018-08-22T17:48:34.780Z,40.39
2018-08-22T17:52:10.631Z,40.26
2018-08-22T17:55:12.963Z,41.29
2018-08-22T17:58:15.213Z,42.07
2018-08-22T18:01:17.462Z,44.05
2018-08-22T18:04:19.790Z,44.69
2018-08-22T18:07:22.194Z,45.69
2018-08-22T18:10:24.489Z,48.37
2018-08-22T18:13:27.041Z,49.10
2018-08-22T18:16:29.394Z,50.77
2018-08-22T18:19:31.917Z,51.28
2018-08-22T18:22:35.671Z,52.09
2018-08-22T18:25:45.120Z,52.96
2018-08-22T18:28:47.445Z,53.58
2018-08-22T18:31:50.175Z,55.27
2018-08-22T18:35:07.138Z,55.49
2018-08-22T18:38:09.422Z,57.59
2018-08-22T18:41:11.674Z,57.41
2018-08-22T18:44:15.510Z,58.21
2018-08-22T18:47:17.883Z,57.75
2018-08-22T18:50:20.213Z,58.59
2018-08-22T18:53:22.516Z,59.86
2018-08-22T18:56:24.727Z,60.46
2018-08-22T18:59:26.962Z,59.56
2018-08-22T19:02:29.132Z,59.13
2018-08-22T19:05:33.726Z,59.65
2018-08-22T19:08:37.095Z,61.46
2018-08-22T19:11:39.388Z,61.13
2018-08-22T19:14:46.167Z,62.12
2018-08-22T19:17:48.484Z,63.23
2018-08-22T19:20:55.359Z,63.02
2018-08-22T19:24:03.990Z,64.16
2018-08-22T19:27:06.198Z,65.17
2018-08-22T19:30:08.486Z,65.01
2018-08-22T19:33:14.796Z,65.11
2018-08-22T19:36:17.050Z,65.88
2018-08-22T19:39:19.353Z,67.22
2018-08-22T19:42:21.717Z,67.34
2018-08-22T19:45:23.935Z,67.26
2018-08-22T19:48:26.303Z,67.65
2018-08-22T19:51:28.696Z,69.46
2018-08-22T19:54:31.141Z,70.97
2018-08-22T19:57:34.726Z,71.76
2018-08-22T20:00:37.173Z,71.59
2018-08-22T20:03:39.501Z,71.19
2018-08-22T20:06:41.749Z,71.53
2018-08-22T20:09:44.024Z,72.70
2018-08-22T20:12:48.545Z,73.31
2018-08-22T20:15:51.813Z,74.17
2018-08-22T20:18:55.193Z,72.94
2018-08-22T20:21:57.372Z,73.43
2018-08-22T20:25:00.969Z,73.83
2018-08-22T20:28:03.244Z,73.86
2018-08-22T20:31:10.092Z,75.21
2018-08-22T20:34:13.770Z,77.13
2018-08-22T20:37:16.088Z,77.09
2018-08-22T20:40:18.881Z,75.96
2018-08-22T20:43:25.732Z,76.59
2018-08-22T20:46:27.996Z,76.00
2018-08-22T20:49:30.359Z,75.89
2018-08-22T20:52:32.622Z,76.48
2018-08-22T20:55:35.979Z,77.32
2018-08-22T20:58:40.946Z,77.16
2018-08-22T21:01:44.981Z,77.22
2018-08-22T21:04:47.617Z,77.59
2018-08-22T21:07:49.902Z,77.81
2018-08-22T21:10:53.182Z,78.60
2018-08-22T21:13:55.518Z,79.94
2018-08-22T21:16:57.673Z,78.83
2018-08-22T21:20:02.813Z,81.18
2018-08-22T21:23:05.128Z,81.68
2018-08-22T21:26:07.443Z,80.39
2018-08-22T21:29:09.907Z,78.51
2018-08-22T21:32:12.153Z,78.32
2018-08-22T21:35:20.151Z,78.13
2018-08-22T21:38:22.436Z,78.01
2018-08-22T21:41:24.804Z,77.51
2018-08-22T21:44:27.033Z,78.20
2018-08-22T21:47:29.539Z,78.46
2018-08-22T21:50:31.814Z,77.11
2018-08-22T21:53:34.143Z,78.25
2018-08-22T21:56:37.934Z,77.04
2018-08-22T21:59:40.242Z,77.71
2018-08-22T22:02:43.411Z,77.80
2018-08-22T22:06:08.520Z,77.75
2018-08-22T22:09:10.853Z,77.80
2018-08-22T22:12:18.855Z,78.65
2018-08-22T22:15:26.792Z,78.63
2018-08-22T22:18:30.751Z,79.46
2018-08-22T22:21:34.178Z,78.55
2018-08-22T22:24:50.425Z,79.27
2018-08-22T22:27:52.751Z,79.67
2018-08-22T22:30:54.910Z,79.73
2018-08-22T22:33:59.985Z,78.96
2018-08-22T22:37:02.242Z,79.72
2018-08-22T22:40:04.926Z,79.79
2018-08-22T22:43:09.800Z,79.78
2018-08-22T22:46:11.970Z,80.23
2018-08-22T22:49:14.199Z,80.14
2018-08-22T22:52:25.855Z,80.40
2018-08-22T22:55:28.060Z,80.98
2018-08-22T22:58:30.924Z,81.31
2018-08-22T23:01:33.163Z,81.70
2018-08-22T23:04:43.882Z,82.51
2018-08-22T23:07:46.041Z,83.01
2018-08-22T23:10:48.180Z,83.53
2018-08-22T23:13:50.393Z,83.92
2018-08-22T23:16:52.681Z,82.94
2018-08-22T23:20:13.969Z,83.16
2018-08-22T23:23:31.550Z,83.39
2018-08-22T23:26:33.875Z,83.90
2018-08-22T23:29:36.153Z,83.89
2018-08-22T23:32:38.596Z,85.33
2018-08-22T23:35:40.946Z,84.93
2018-08-22T23:38:43.185Z,86.09
2018-08-22T23:41:45.430Z,85.73
2018-08-22T23:44:48.333Z,85.55
2018-08-22T23:47:50.626Z,86.32
2018-08-22T23:50:58.950Z,86.97
2018-08-22T23:54:01.193Z,86.85
2018-08-22T23:57:04.569Z,87.69
